createdAt,value
2022-08-16T00:00:07.867Z,978.1
2022-08-16T00:02:11.991Z,978.1
2022-08-16T00:04:10.250Z,978.1
2022-08-16T00:06:11.480Z,978.1
2022-08-16T00:08:12.650Z,978.1
2022-08-16T00:10:20.038Z,978.2
2022-08-16T00:12:17.728Z,978.2
2022-08-16T00:14:16.605Z,978.2
2022-08-16T00:16:58.127Z,978.2
2022-08-16T00:18:18.762Z,978.3
2022-08-16T00:20:21.001Z,978.3
2022-08-16T00:22:21.165Z,978.2
2022-08-16T00:24:31.485Z,978.3
2022-08-16T00:26:34.222Z,978.2
2022-08-16T00:28:24.956Z,978.2
2022-08-16T00:30:28.864Z,978.2
2022-08-16T00:32:27.715Z,978.2
2022-08-16T00:34:41.538Z,978.2
2022-08-16T00:36:30.387Z,978.2
2022-08-16T00:38:40.402Z,978.3
2022-08-16T00:40:33.921Z,978.2
2022-08-16T00:42:34.807Z,978.2
2022-08-16T00:44:36.569Z,978.2
2022-08-16T00:46:37.797Z,978.2
2022-08-16T00:48:44.230Z,978.2
2022-08-16T00:50:40.227Z,978.3
2022-08-16T00:52:45.904Z,978.1
2022-08-16T00:54:43.101Z,978.2
2022-08-16T00:56:57.236Z,978.2
2022-08-16T00:58:46.090Z,978.2
2022-08-16T01:00:53.851Z,978.2
2022-08-16T01:02:49.228Z,978.2
2022-08-16T01:07:01.493Z,978.2
2022-08-16T01:08:53.104Z,978.2
2022-08-16T01:10:54.165Z,978.3
2022-08-16T01:12:55.984Z,978.3
2022-08-16T01:16:58.698Z,978.2
2022-08-16T01:19:00.253Z,978.2
2022-08-16T01:21:01.795Z,978.2
2022-08-16T01:23:03.610Z,978.3
2022-08-16T01:25:04.440Z,978.3
2022-08-16T01:27:05.502Z,978.3
2022-08-16T01:29:06.789Z,978.4
2022-08-16T01:33:14.853Z,978.3
2022-08-16T01:35:17.138Z,978.3
2022-08-16T01:37:13.169Z,978.3
2022-08-16T01:39:14.433Z,978.4
2022-08-16T01:41:19.377Z,978.4
2022-08-16T01:43:17.119Z,978.4
2022-08-16T01:45:19.549Z,978.4
2022-08-16T01:47:20.129Z,978.3
2022-08-16T01:49:21.388Z,978.4
2022-08-16T01:51:23.252Z,978.4
2022-08-16T01:53:24.138Z,978.4
2022-08-16T01:55:25.759Z,978.3
2022-08-16T01:57:27.351Z,978.3
2022-08-16T01:59:28.564Z,978.3
2022-08-16T02:01:30.067Z,978.3
2022-08-16T02:03:31.650Z,978.4
2022-08-16T02:05:32.586Z,978.4
2022-08-16T02:07:33.838Z,978.4
2022-08-16T02:09:35.297Z,978.5
2022-08-16T02:11:43.060Z,978.5
2022-08-16T02:13:41.752Z,978.3
2022-08-16T02:15:42.465Z,978.4
2022-08-16T02:17:40.689Z,978.4
2022-08-16T02:22:08.092Z,978.3
2022-08-16T02:23:44.936Z,978.3
2022-08-16T02:25:51.285Z,978.2
2022-08-16T02:27:48.045Z,978.2
2022-08-16T02:29:49.166Z,978.3
2022-08-16T02:32:03.026Z,978.2
2022-08-16T02:33:51.657Z,978.4
2022-08-16T02:35:54.645Z,978.3
2022-08-16T02:37:55.145Z,978.2
2022-08-16T02:39:55.543Z,978.3
2022-08-16T02:41:57.103Z,978.3
2022-08-16T02:43:58.238Z,978.3
2022-08-16T02:45:59.505Z,978.3
2022-08-16T02:48:28.009Z,978.4
2022-08-16T02:50:53.393Z,978.3
2022-08-16T02:52:04.520Z,978.3
2022-08-16T02:54:06.404Z,978.2
2022-08-16T02:56:09.705Z,978.2
2022-08-16T02:58:09.097Z,978.3
2022-08-16T03:00:32.329Z,978.3
2022-08-16T03:04:29.374Z,978.2
2022-08-16T03:06:38.965Z,978.2
2022-08-16T03:08:51.427Z,978.2
2022-08-16T03:10:17.927Z,978.2
2022-08-16T03:12:19.141Z,978.2
2022-08-16T03:14:28.819Z,978.2
2022-08-16T03:16:33.348Z,978.1
2022-08-16T03:18:34.361Z,978.1
2022-08-16T03:20:31.797Z,978.1
2022-08-16T03:22:34.221Z,978.1
2022-08-16T03:25:41.245Z,978
2022-08-16T03:26:28.111Z,978.1
2022-08-16T03:32:38.234Z,978
2022-08-16T03:34:33.309Z,978.1
2022-08-16T03:36:34.433Z,978.1
2022-08-16T03:40:37.526Z,978
2022-08-16T03:43:00.653Z,978.1
2022-08-16T03:44:44.907Z,978.1
2022-08-16T03:46:44.729Z,978.1
2022-08-16T03:48:43.316Z,978.1
2022-08-16T03:50:44.504Z,978.1
2022-08-16T03:52:46.316Z,978.1
2022-08-16T03:54:53.818Z,978.2
2022-08-16T03:58:52.560Z,978.1
2022-08-16T04:02:53.814Z,978.2
2022-08-16T04:04:55.307Z,978.2
2022-08-16T04:06:56.435Z,978.4
2022-08-16T04:08:58.226Z,978.2
2022-08-16T04:13:02.342Z,978.3
2022-08-16T04:15:02.636Z,978.3
2022-08-16T04:17:03.902Z,978.3
2022-08-16T04:19:05.094Z,978.3
2022-08-16T04:21:06.396Z,978.3
2022-08-16T04:23:07.619Z,978.3
2022-08-16T04:25:08.670Z,978.4
2022-08-16T04:27:10.557Z,978.3
2022-08-16T04:29:14.836Z,978.2
2022-08-16T04:31:13.197Z,978.2
2022-08-16T04:33:14.470Z,978.3
2022-08-16T04:35:15.800Z,978.3
2022-08-16T04:37:17.486Z,978.4
2022-08-16T04:39:19.191Z,978.3
2022-08-16T04:41:20.245Z,978.3
2022-08-16T04:43:21.749Z,978.4
2022-08-16T04:45:35.515Z,978.5
2022-08-16T04:47:24.831Z,978.5
2022-08-16T04:49:26.668Z,978.5
2022-08-16T04:51:28.546Z,978.5
2022-08-16T04:53:29.668Z,978.6
2022-08-16T04:55:32.033Z,978.7
2022-08-16T04:57:33.162Z,978.5
2022-08-16T05:01:47.859Z,978.5
2022-08-16T05:03:41.622Z,978.6
2022-08-16T05:05:45.046Z,978.6
2022-08-16T05:07:40.207Z,978.6
2022-08-16T05:09:42.765Z,978.6
2022-08-16T05:11:43.593Z,978.7
2022-08-16T05:13:44.585Z,978.6
2022-08-16T05:15:46.405Z,978.6
2022-08-16T05:17:48.044Z,978.7
2022-08-16T05:19:57.156Z,978.6
2022-08-16T05:21:50.323Z,978.7
2022-08-16T05:23:51.933Z,978.7
2022-08-16T05:25:52.754Z,978.7
2022-08-16T05:27:54.532Z,978.7
2022-08-16T05:29:57.943Z,978.7
2022-08-16T05:31:57.403Z,978.7
2022-08-16T05:33:58.797Z,978.7
2022-08-16T05:35:59.938Z,978.7
2022-08-16T05:38:01.554Z,978.7
2022-08-16T05:40:06.213Z,978.7
2022-08-16T05:42:04.054Z,978.8
2022-08-16T05:42:49.475Z,978.8
2022-08-16T05:48:54.791Z,978.8
2022-08-16T05:50:53.059Z,978.7
2022-08-16T05:52:53.736Z,978.8
2022-08-16T05:54:58.666Z,978.8
2022-08-16T05:56:56.235Z,978.8
2022-08-16T05:58:57.816Z,978.9
2022-08-16T06:00:58.952Z,978.8
2022-08-16T06:03:00.318Z,978.9
2022-08-16T06:05:02.078Z,978.8
2022-08-16T06:07:05.747Z,978.8
2022-08-16T06:09:04.148Z,978.8
2022-08-16T06:11:10.049Z,978.7
2022-08-16T06:13:07.016Z,978.7
2022-08-16T06:15:09.789Z,978.8
2022-08-16T06:17:09.382Z,978.8
2022-08-16T06:21:11.908Z,978.8
2022-08-16T06:23:17.358Z,978.7
2022-08-16T06:25:15.145Z,978.8
2022-08-16T06:27:16.009Z,978.7
2022-08-16T06:31:18.718Z,978.7
2022-08-16T06:33:22.483Z,978.7
2022-08-16T06:35:20.661Z,978.8
2022-08-16T06:37:21.744Z,978.9
2022-08-16T06:39:23.341Z,978.9
2022-08-16T06:41:27.319Z,978.8
2022-08-16T06:43:27.236Z,978.8
2022-08-16T06:45:29.006Z,978.9
2022-08-16T06:47:28.999Z,978.9
2022-08-16T06:49:29.736Z,978.9
2022-08-16T06:51:45.115Z,978.8
2022-08-16T06:53:32.665Z,978.8
2022-08-16T06:55:34.606Z,978.9
2022-08-16T06:57:34.574Z,978.8
2022-08-16T06:59:48.774Z,978.8
2022-08-16T07:01:42.790Z,978.9
2022-08-16T07:03:54.694Z,978.9
2022-08-16T07:05:41.236Z,978.9
2022-08-16T07:07:40.808Z,978.9
2022-08-16T07:09:41.802Z,978.9
2022-08-16T07:11:46.364Z,978.8
2022-08-16T07:13:58.664Z,978.9
2022-08-16T07:15:50.319Z,978.9
2022-08-16T07:17:47.377Z,978.9
2022-08-16T07:20:02.335Z,978.9
2022-08-16T07:21:59.275Z,979
2022-08-16T07:23:50.229Z,978.8
2022-08-16T07:25:50.992Z,978.9
2022-08-16T07:27:52.115Z,978.9
2022-08-16T07:29:55.745Z,979
2022-08-16T07:31:54.949Z,979
2022-08-16T07:33:55.997Z,978.9
2022-08-16T07:35:57.050Z,978.9
2022-08-16T07:37:58.510Z,978.9
2022-08-16T07:39:59.715Z,978.9
2022-08-16T07:42:01.059Z,978.9
2022-08-16T07:44:02.350Z,979
2022-08-16T07:46:03.764Z,978.9
2022-08-16T07:48:08.288Z,979
2022-08-16T07:50:07.427Z,978.9
2022-08-16T07:52:18.828Z,978.9
2022-08-16T07:54:09.767Z,979
2022-08-16T07:56:09.961Z,979
2022-08-16T07:58:11.008Z,979
2022-08-16T08:02:12.832Z,979.1
2022-08-16T08:04:14.189Z,979.1
2022-08-16T08:06:15.244Z,979
2022-08-16T08:08:49.094Z,978.9
2022-08-16T08:12:31.760Z,979.1
2022-08-16T08:14:29.544Z,979.1
2022-08-16T08:18:28.919Z,979.1
2022-08-16T08:20:26.478Z,979.1
2022-08-16T08:22:26.290Z,979.1
2022-08-16T08:24:31.446Z,979.2
2022-08-16T08:26:28.817Z,979.2
2022-08-16T08:28:30.081Z,979.1
2022-08-16T08:30:50.810Z,979.2
2022-08-16T08:32:49.116Z,979.2
2022-08-16T08:34:33.752Z,979.2
2022-08-16T08:36:34.625Z,979.2
2022-08-16T08:38:43.632Z,979.1
2022-08-16T08:40:36.800Z,979.2
2022-08-16T08:42:38.061Z,979.2
2022-08-16T08:44:39.569Z,979.2
2022-08-16T08:46:41.009Z,979.3
2022-08-16T08:48:43.738Z,979.2
2022-08-16T08:50:44.114Z,979.2
2022-08-16T08:52:47.849Z,979.3
2022-08-16T08:54:47.049Z,979.2
2022-08-16T08:56:48.037Z,979.3
2022-08-16T08:58:53.546Z,979.2
2022-08-16T09:00:51.739Z,979.3
2022-08-16T09:02:52.486Z,979.3
2022-08-16T09:04:53.527Z,979.3
2022-08-16T09:06:55.610Z,979.3
2022-08-16T09:08:56.541Z,979.4
2022-08-16T09:10:58.936Z,979.3
2022-08-16T09:12:59.515Z,979.3
2022-08-16T09:15:00.334Z,979.3
2022-08-16T09:19:04.003Z,979.3
2022-08-16T09:21:05.044Z,979.4
2022-08-16T09:23:06.757Z,979.4
2022-08-16T09:25:09.610Z,979.4
2022-08-16T09:27:08.856Z,979.4
2022-08-16T09:29:13.451Z,979.3
2022-08-16T09:31:11.089Z,979.3
2022-08-16T09:33:12.309Z,979.3
2022-08-16T09:35:13.160Z,979.4
2022-08-16T09:37:17.838Z,979.4
2022-08-16T09:39:15.916Z,979.3
2022-08-16T09:43:46.797Z,979.3
2022-08-16T09:45:22.093Z,979.4
2022-08-16T09:47:23.329Z,979.4
2022-08-16T09:49:22.559Z,979.4
2022-08-16T09:51:24.177Z,979.4
2022-08-16T09:53:25.660Z,979.3
2022-08-16T09:55:27.979Z,979.3
2022-08-16T09:57:34.480Z,979.3
2022-08-16T09:59:30.556Z,979.3
2022-08-16T10:01:31.337Z,979.3
2022-08-16T10:03:32.298Z,979.2
2022-08-16T10:05:33.793Z,979.3
2022-08-16T10:07:38.452Z,979.3
2022-08-16T10:09:35.893Z,979.2
2022-08-16T10:11:50.134Z,979.3
2022-08-16T10:13:39.175Z,979.2
2022-08-16T10:15:40.130Z,979.2
2022-08-16T10:17:41.477Z,979.2
2022-08-16T10:19:43.235Z,979.2
2022-08-16T10:21:43.495Z,979.2
2022-08-16T10:23:44.641Z,979.2
2022-08-16T10:26:59.697Z,979.2
2022-08-16T10:27:50.491Z,979.2
2022-08-16T10:29:59.646Z,979.2
2022-08-16T10:33:51.235Z,979.2
2022-08-16T10:35:52.772Z,979.2
2022-08-16T10:37:54.141Z,979.2
2022-08-16T10:39:55.787Z,979.2
2022-08-16T10:41:56.684Z,979.1
2022-08-16T10:43:57.505Z,979.2
2022-08-16T10:46:00.080Z,979.1
2022-08-16T10:48:00.965Z,979.1
2022-08-16T10:52:18.488Z,979.1
2022-08-16T10:54:05.257Z,979.1
2022-08-16T10:56:53.138Z,979.1
2022-08-16T10:58:11.525Z,979.2
2022-08-16T11:00:20.930Z,979.2
2022-08-16T11:02:57.377Z,979
2022-08-16T11:05:05.316Z,979.1
2022-08-16T11:06:14.179Z,979.1
2022-08-16T11:08:16.361Z,979.1
2022-08-16T11:10:21.423Z,979.1
2022-08-16T11:12:18.903Z,979.1
2022-08-16T11:14:20.212Z,979.2
2022-08-16T11:16:25.822Z,979.2
2022-08-16T11:18:49.279Z,979.2
2022-08-16T11:20:40.993Z,979.2
2022-08-16T11:22:39.811Z,979.2
2022-08-16T11:24:40.368Z,979.2
2022-08-16T11:26:29.027Z,979.2
2022-08-16T11:30:36.873Z,979.3
2022-08-16T11:34:56.845Z,979.2
2022-08-16T11:36:35.242Z,979.2
2022-08-16T11:40:37.530Z,979.2
2022-08-16T11:42:38.699Z,979.2
2022-08-16T11:44:53.170Z,979.2
2022-08-16T11:46:44.014Z,979.1
2022-08-16T11:48:42.948Z,979.2
2022-08-16T11:50:43.814Z,979.1
2022-08-16T11:52:46.354Z,979.2
2022-08-16T11:54:46.597Z,979.1
2022-08-16T11:56:52.098Z,979
2022-08-16T11:58:51.628Z,979.1
2022-08-16T12:00:52.059Z,979.1
2022-08-16T12:02:52.095Z,979.1
2022-08-16T12:06:55.175Z,979.1
2022-08-16T12:08:56.124Z,979.1
2022-08-16T12:10:59.195Z,979.1
2022-08-16T12:13:02.668Z,979
2022-08-16T12:15:00.722Z,979.1
2022-08-16T12:17:01.685Z,979
2022-08-16T12:19:02.997Z,979
2022-08-16T12:21:04.674Z,979
2022-08-16T12:23:05.610Z,979
2022-08-16T12:25:06.947Z,979
2022-08-16T12:27:08.266Z,978.9
2022-08-16T12:27:51.601Z,978.9
2022-08-16T12:29:53.274Z,978.9
2022-08-16T12:31:56.832Z,979.1
2022-08-16T12:33:57.584Z,979
2022-08-16T12:35:57.639Z,979
2022-08-16T12:37:59.078Z,978.9
2022-08-16T12:40:00.237Z,978.9
2022-08-16T12:42:01.370Z,978.9
2022-08-16T12:44:01.962Z,978.9
2022-08-16T12:46:03.546Z,978.9
2022-08-16T12:48:22.398Z,978.9
2022-08-16T12:50:06.179Z,978.9
2022-08-16T12:52:07.529Z,979
2022-08-16T12:54:09.044Z,978.9
2022-08-16T12:56:10.702Z,978.8
2022-08-16T12:58:13.667Z,978.8
2022-08-16T13:00:13.307Z,978.8
2022-08-16T13:02:22.505Z,978.9
2022-08-16T13:04:19.540Z,978.8
2022-08-16T13:06:19.849Z,978.8
2022-08-16T13:08:19.953Z,978.9
2022-08-16T13:10:20.990Z,978.9
2022-08-16T13:12:21.870Z,978.8
2022-08-16T13:16:24.835Z,978.8
2022-08-16T13:18:27.274Z,978.7
2022-08-16T13:20:26.051Z,978.7
2022-08-16T13:22:27.621Z,978.7
2022-08-16T13:24:28.843Z,978.7
2022-08-16T13:26:30.511Z,978.7
2022-08-16T13:28:31.729Z,978.7
2022-08-16T13:30:35.706Z,978.7
2022-08-16T13:32:39.508Z,978.7
2022-08-16T13:34:35.889Z,978.7
2022-08-16T13:36:49.265Z,978.6
2022-08-16T13:38:38.634Z,978.6
2022-08-16T13:40:40.060Z,978.5
2022-08-16T13:42:41.547Z,978.5
2022-08-16T13:44:49.019Z,978.5
2022-08-16T13:46:43.910Z,978.5
2022-08-16T13:48:45.551Z,978.5
2022-08-16T13:50:49.409Z,978.6
2022-08-16T13:52:47.813Z,978.5
2022-08-16T13:54:49.430Z,978.5
2022-08-16T13:56:51.146Z,978.5
2022-08-16T13:58:54.686Z,978.5
2022-08-16T14:00:54.027Z,978.6
2022-08-16T14:02:58.528Z,978.5
2022-08-16T14:05:02.713Z,978.4
2022-08-16T14:06:57.565Z,978.5
2022-08-16T14:08:58.964Z,978.4
2022-08-16T14:10:59.483Z,978.4
2022-08-16T14:13:00.928Z,978.4
2022-08-16T14:15:02.761Z,978.5
2022-08-16T14:17:04.233Z,978.4
2022-08-16T14:19:05.168Z,978.5
2022-08-16T14:21:05.969Z,978.4
2022-08-16T14:23:07.291Z,978.5
2022-08-16T14:25:10.179Z,978.4
2022-08-16T14:27:09.153Z,978.5
2022-08-16T14:29:10.561Z,978.5
2022-08-16T14:31:12.055Z,978.5
2022-08-16T14:33:13.493Z,978.4
2022-08-16T14:35:14.851Z,978.4
2022-08-16T14:37:15.640Z,978.4
2022-08-16T14:39:16.423Z,978.4
2022-08-16T14:41:17.688Z,978.4
2022-08-16T14:43:19.233Z,978.4
2022-08-16T14:45:20.484Z,978.4
2022-08-16T14:47:22.118Z,978.4
2022-08-16T14:49:23.796Z,978.4
2022-08-16T14:51:27.254Z,978.4
2022-08-16T14:53:26.482Z,978.4
2022-08-16T14:57:28.248Z,978.4
2022-08-16T14:59:29.799Z,978.3
2022-08-16T15:01:41.510Z,978.3
2022-08-16T15:03:33.065Z,978.3
2022-08-16T15:05:33.088Z,978.3
2022-08-16T15:07:35.417Z,978.3
2022-08-16T15:09:36.325Z,978.3
2022-08-16T15:11:41.878Z,978.3
2022-08-16T15:13:38.771Z,978.3
2022-08-16T15:15:39.910Z,978.2
2022-08-16T15:17:41.140Z,978.3
2022-08-16T15:19:42.676Z,978.3
2022-08-16T15:21:43.951Z,978.3
2022-08-16T15:23:44.834Z,978.4
2022-08-16T15:25:46.145Z,978.4
2022-08-16T15:27:54.571Z,978.3
2022-08-16T15:29:48.348Z,978.3
2022-08-16T15:31:49.778Z,978.3
2022-08-16T15:33:56.409Z,978.3
2022-08-16T15:35:52.201Z,978.3
2022-08-16T15:37:54.628Z,978.4
2022-08-16T15:39:55.969Z,978.4
2022-08-16T15:41:56.116Z,978.3
2022-08-16T15:44:03.661Z,978.4
2022-08-16T15:45:57.954Z,978.4
2022-08-16T15:47:59.218Z,978.4
2022-08-16T15:50:00.808Z,978.4
2022-08-16T15:52:03.023Z,978.3
2022-08-16T15:54:20.326Z,978.4
2022-08-16T15:56:05.287Z,978.4
2022-08-16T15:58:34.461Z,978.5
2022-08-16T16:00:14.484Z,978.4
2022-08-16T16:02:08.429Z,978.5
2022-08-16T16:04:09.245Z,978.4
2022-08-16T16:06:10.367Z,978.4
2022-08-16T16:08:12.376Z,978.6
2022-08-16T16:10:13.102Z,978.5
2022-08-16T16:12:41.763Z,978.5
2022-08-16T16:14:14.324Z,978.6
2022-08-16T16:16:16.735Z,978.6
2022-08-16T16:18:16.311Z,978.5
2022-08-16T16:20:17.715Z,978.5
2022-08-16T16:22:18.707Z,978.5
2022-08-16T16:24:21.670Z,978.5
2022-08-16T16:26:21.399Z,978.5
2022-08-16T16:28:46.466Z,978.4
2022-08-16T16:30:32.637Z,978.4
2022-08-16T16:32:26.525Z,978.4
2022-08-16T16:34:26.176Z,978.3
2022-08-16T16:38:28.476Z,978.4
2022-08-16T16:40:32.974Z,978.4
2022-08-16T16:42:31.441Z,978.3
2022-08-16T16:44:33.659Z,978.4
2022-08-16T16:46:40.314Z,978.4
2022-08-16T16:48:35.403Z,978.4
2022-08-16T16:50:35.778Z,978.4
2022-08-16T16:52:43.703Z,978.4
2022-08-16T16:54:37.753Z,978.4
2022-08-16T16:56:39.043Z,978.4
2022-08-16T16:58:40.561Z,978.4
2022-08-16T17:00:41.535Z,978.4
2022-08-16T17:04:44.406Z,978.3
2022-08-16T17:06:53.319Z,978.3
2022-08-16T17:08:47.748Z,978.3
2022-08-16T17:10:49.091Z,978.2
2022-08-16T17:14:50.730Z,978.3
2022-08-16T17:16:51.826Z,978.3
2022-08-16T17:19:15.971Z,978.3
2022-08-16T17:20:53.991Z,978.4
2022-08-16T17:22:55.132Z,978.4
2022-08-16T17:24:56.221Z,978.4
2022-08-16T17:26:57.448Z,978.4
2022-08-16T17:29:01.861Z,978.5
2022-08-16T17:30:59.937Z,978.4
2022-08-16T17:33:01.432Z,978.5
2022-08-16T17:37:05.088Z,978.5
2022-08-16T17:39:04.553Z,978.4
2022-08-16T17:41:07.914Z,978.5
2022-08-16T17:43:06.992Z,978.4
2022-08-16T17:45:08.214Z,978.5
2022-08-16T17:47:09.231Z,978.4
2022-08-16T17:49:10.413Z,978.4
2022-08-16T17:51:11.411Z,978.4
2022-08-16T17:53:12.598Z,978.4
2022-08-16T17:55:14.394Z,978.5
2022-08-16T17:57:17.024Z,978.5
2022-08-16T17:59:16.640Z,978.6
2022-08-16T18:01:18.429Z,978.6
2022-08-16T18:03:24.061Z,978.5
2022-08-16T18:05:20.826Z,978.6
2022-08-16T18:07:21.665Z,978.5
2022-08-16T18:09:23.141Z,978.5
2022-08-16T18:11:25.947Z,978.5
2022-08-16T18:13:26.087Z,978.5
2022-08-16T18:15:27.475Z,978.5
2022-08-16T18:17:28.877Z,978.5
2022-08-16T18:19:32.111Z,978.5
2022-08-16T18:21:31.980Z,978.5
2022-08-16T18:23:33.449Z,978.5
2022-08-16T18:25:35.119Z,978.5
2022-08-16T18:27:36.756Z,978.5
2022-08-16T18:29:38.428Z,978.5
2022-08-16T18:31:39.492Z,978.4
2022-08-16T18:33:43.497Z,978.4
2022-08-16T18:35:42.470Z,978.5
2022-08-16T18:37:43.268Z,978.5
2022-08-16T18:39:44.637Z,978.4
2022-08-16T18:41:45.968Z,978.6
2022-08-16T18:43:54.514Z,978.6
2022-08-16T18:45:48.402Z,978.5
2022-08-16T18:47:50.173Z,978.6
2022-08-16T18:49:51.272Z,978.5
2022-08-16T18:53:53.697Z,978.6
2022-08-16T18:55:55.233Z,978.7
2022-08-16T18:57:56.190Z,978.6
2022-08-16T19:02:00.665Z,978.7
2022-08-16T19:03:59.896Z,978.7
2022-08-16T19:06:01.130Z,978.7
2022-08-16T19:08:02.673Z,978.8
2022-08-16T19:10:04.325Z,978.8
2022-08-16T19:12:05.315Z,978.8
2022-08-16T19:12:49.157Z,978.7
2022-08-16T19:16:51.594Z,978.8
2022-08-16T19:18:53.221Z,978.8
2022-08-16T19:20:54.170Z,978.8
2022-08-16T19:23:04.905Z,978.8
2022-08-16T19:24:57.150Z,978.8
2022-08-16T19:26:58.882Z,978.9
2022-08-16T19:29:01.915Z,978.9
2022-08-16T19:31:01.583Z,979
2022-08-16T19:33:05.400Z,978.9
2022-08-16T19:35:04.811Z,979
2022-08-16T19:37:06.423Z,979
2022-08-16T19:39:08.757Z,979
2022-08-16T19:41:09.033Z,979.1
2022-08-16T19:43:09.975Z,979
2022-08-16T19:45:11.138Z,979.1
2022-08-16T19:47:12.479Z,979.1
2022-08-16T19:49:14.966Z,979.1
2022-08-16T19:51:15.600Z,979.2
2022-08-16T19:53:16.516Z,979.1
2022-08-16T19:55:21.992Z,979.1
2022-08-16T19:57:19.259Z,979.1
2022-08-16T19:59:21.658Z,979.1
2022-08-16T20:01:21.768Z,979.1
2022-08-16T20:03:23.258Z,979.1
2022-08-16T20:05:24.122Z,979.2
2022-08-16T20:07:25.571Z,979.2
2022-08-16T20:09:26.744Z,979.1
2022-08-16T20:11:27.654Z,979.1
2022-08-16T20:13:28.882Z,979.3
2022-08-16T20:15:30.149Z,979.2
2022-08-16T20:17:31.350Z,979.3
2022-08-16T20:21:33.761Z,979.3
2022-08-16T20:23:35.169Z,979.2
2022-08-16T20:25:41.229Z,979.3
2022-08-16T20:27:38.143Z,979.3
2022-08-16T20:31:40.531Z,979.3
2022-08-16T20:33:42.229Z,979.3
2022-08-16T20:37:44.515Z,979.3
2022-08-16T20:39:45.571Z,979.4
2022-08-16T20:41:46.574Z,979.3
2022-08-16T20:43:47.623Z,979.4
2022-08-16T20:45:48.375Z,979.4
2022-08-16T20:47:50.056Z,979.4
2022-08-16T20:49:51.347Z,979.4
2022-08-16T20:51:56.012Z,979.4
2022-08-16T20:53:54.002Z,979.3
2022-08-16T20:55:55.209Z,979.4
2022-08-16T20:57:56.078Z,979.3
2022-08-16T20:59:57.469Z,979.3
2022-08-16T21:01:59.275Z,979.4
2022-08-16T21:04:00.768Z,979.4
2022-08-16T21:06:01.668Z,979.4
2022-08-16T21:08:05.830Z,979.4
2022-08-16T21:10:03.801Z,979.3
2022-08-16T21:12:04.982Z,979.3
2022-08-16T21:14:06.325Z,979.4
2022-08-16T21:16:07.799Z,979.4
2022-08-16T21:20:10.653Z,979.5
2022-08-16T21:22:12.102Z,979.6
2022-08-16T21:24:13.569Z,979.6
2022-08-16T21:26:15.151Z,979.5
2022-08-16T21:28:39.614Z,979.5
2022-08-16T21:30:17.702Z,979.5
2022-08-16T21:34:20.959Z,979.5
2022-08-16T21:40:24.776Z,979.5
2022-08-16T21:42:26.576Z,979.4
2022-08-16T21:44:31.132Z,979.4
2022-08-16T21:46:30.032Z,979.4
2022-08-16T21:48:34.327Z,979.5
2022-08-16T21:50:32.167Z,979.5
2022-08-16T21:52:33.044Z,979.5
2022-08-16T21:54:33.978Z,979.5
2022-08-16T21:56:34.905Z,979.5
2022-08-16T21:58:36.660Z,979.5
2022-08-16T22:00:38.496Z,979.5
2022-08-16T22:02:40.038Z,979.6
2022-08-16T22:04:41.754Z,979.6
2022-08-16T22:06:43.023Z,979.6
2022-08-16T22:08:46.779Z,979.6
2022-08-16T22:11:01.279Z,979.6
2022-08-16T22:12:46.839Z,979.6
2022-08-16T22:14:48.695Z,979.6
2022-08-16T22:16:50.015Z,979.7
2022-08-16T22:18:52.041Z,979.7
2022-08-16T22:20:52.646Z,979.6
2022-08-16T22:22:54.004Z,979.7
2022-08-16T22:26:57.488Z,979.7
2022-08-16T22:28:58.903Z,979.7
2022-08-16T22:31:00.563Z,979.6
2022-08-16T22:35:10.929Z,979.7
2022-08-16T22:37:04.810Z,979.7
2022-08-16T22:39:06.020Z,979.7
2022-08-16T22:41:07.829Z,979.7
2022-08-16T22:43:09.253Z,979.8
2022-08-16T22:45:10.328Z,979.8
2022-08-16T22:47:12.173Z,979.8
2022-08-16T22:49:13.756Z,979.8
2022-08-16T22:51:15.317Z,979.8
2022-08-16T22:53:16.795Z,979.8
2022-08-16T22:55:17.792Z,979.7
2022-08-16T22:57:19.365Z,979.7
2022-08-16T22:59:20.817Z,979.7
2022-08-16T23:01:21.997Z,979.7
2022-08-16T23:03:23.521Z,979.7
2022-08-16T23:05:25.343Z,979.7
2022-08-16T23:07:27.223Z,979.7
2022-08-16T23:09:28.205Z,979.7
2022-08-16T23:11:29.227Z,979.7
2022-08-16T23:13:30.966Z,979.6
2022-08-16T23:15:32.566Z,979.7
2022-08-16T23:17:34.188Z,979.7
2022-08-16T23:19:35.398Z,979.7
2022-08-16T23:21:36.548Z,979.7
2022-08-16T23:23:38.171Z,979.6
2022-08-16T23:25:39.751Z,979.6
2022-08-16T23:27:41.181Z,979.6
2022-08-16T23:29:42.642Z,979.6
2022-08-16T23:33:44.966Z,979.5
2022-08-16T23:35:46.497Z,979.4
2022-08-16T23:37:47.890Z,979.5
2022-08-16T23:39:49.436Z,979.5
2022-08-16T23:41:50.492Z,979.5
2022-08-16T23:45:52.849Z,979.5
2022-08-16T23:47:54.084Z,979.4
2022-08-16T23:50:03.006Z,979.5
2022-08-16T23:51:56.981Z,979.4
2022-08-16T23:53:58.601Z,979.5
2022-08-16T23:55:59.822Z,979.4
2022-08-16T23:58:01.249Z,979.4
